Terminal Aerodrome Forecast
Issued by NWS Sioux Falls, SD

Home | Current Version | Previous Version | Graphics & Text | Print | Product List | Glossary Off
Versions: 1 2 3 4 5 6 7 8 9 10 11 12 13 14 15 16 17 18 19 20 21 22 23 24 25 26 27 28 29 30 31 32 33 34 35 36 37 38 39 40

000
FTUS43 KFSD 112000 AAA
TAFSUX
TAF AMD
KSUX 112010Z 1120/1218 16009KT P6SM SCT015 SCT110
      TEMPO 1120/1123 BKN015
     FM120000 14005KT P6SM BKN200
      TEMPO 1205/1207 5SM TSRA SCT070CB OVC110
     FM120700 06007KT 5SM TSRA SCT050CB OVC070
     FM121200 04006KT P6SM -SHRA SCT035 OVC050=

USA.gov is the U.S. government's official web portal to all federal, state and local government web resources and services.